Time;durP1;ratioP1;P1;durP2;ratioP2;P2;SDS_P1;SDS_P2;PMS_P1;PMS_P2;Temp;Humidity;BMP_temperature;BMP_pressure;BME280_temperature;BME280_humidity;BME280_pressure;Samples;Min_cycle;Max_cycle;Signal;HPM_P1;HPM_P2
2021/04/06 00:00:05;;;;;;;5.72;1.88;;;;;;;;;;5104567;28;20548;-75
2021/04/06 00:02:32;;;;;;;2.70;2.00;;;;;;;;;;5115284;28;20584;-78
2021/04/06 00:04:59;;;;;;;4.05;2.05;;;;;;;;;;5114748;28;20199;-76
2021/04/06 00:07:26;;;;;;;6.35;2.35;;;;;;;;;;5111861;28;20259;-76
2021/04/06 00:09:54;;;;;;;6.70;2.55;;;;;;;;;;5094714;28;20219;-76
2021/04/06 00:12:20;;;;;;;10.50;2.58;;;;;;;;;;5095083;28;20575;-76
2021/04/06 00:14:47;;;;;;;6.13;2.15;;;;;;;;;;5105195;28;20220;-76
2021/04/06 00:17:14;;;;;;;7.95;1.75;;;;;;;;;;5115306;28;20189;-76
2021/04/06 00:19:42;;;;;;;4.32;2.10;;;;;;;;;;5115368;28;20170;-75
2021/04/06 00:22:09;;;;;;;7.18;2.78;;;;;;;;;;5114790;28;20178;-77
2021/04/06 00:24:37;;;;;;;7.63;2.30;;;;;;;;;;5114777;28;20223;-76
2021/04/06 00:27:14;;;;;;;6.53;2.10;;;;;;;;;;5096148;28;20194;-77
2021/04/06 00:29:42;;;;;;;3.78;1.70;;;;;;;;;;5094329;28;20262;-77
2021/04/06 00:32:09;;;;;;;5.25;1.92;;;;;;;;;;5092394;28;20179;-75
2021/04/06 00:34:36;;;;;;;6.45;2.00;;;;;;;;;;5103579;28;20170;-76
2021/04/06 00:37:09;;;;;;;5.03;2.10;;;;;;;;;;5105967;28;20613;-76
2021/04/06 00:39:36;;;;;;;4.07;1.90;;;;;;;;;;5101106;28;20262;-76
2021/04/06 00:42:06;;;;;;;3.75;1.63;;;;;;;;;;5102283;28;20295;-75
2021/04/06 00:44:33;;;;;;;7.35;1.90;;;;;;;;;;5114137;28;20178;-76
2021/04/06 00:46:59;;;;;;;4.20;2.05;;;;;;;;;;5103507;28;20188;-77
2021/04/06 00:49:26;;;;;;;4.10;1.45;;;;;;;;;;5094297;28;20262;-77
2021/04/06 00:51:53;;;;;;;3.53;1.70;;;;;;;;;;5093807;28;20215;-77
2021/04/06 00:54:19;;;;;;;3.67;1.95;;;;;;;;;;5102406;28;20175;-76
2021/04/06 00:56:46;;;;;;;5.45;2.30;;;;;;;;;;5093765;28;20191;-76
2021/04/06 00:59:13;;;;;;;5.50;2.00;;;;;;;;;;5093781;28;20175;-76
2021/04/06 01:01:43;;;;;;;4.15;1.60;;;;;;;;;;5103034;28;20202;-76
2021/04/06 01:04:19;;;;;;;2.92;1.77;;;;;;;;;;5095504;28;20205;-76
2021/04/06 01:06:58;;;;;;;6.43;1.95;;;;;;;;;;5101938;28;20663;-76
2021/04/06 01:09:36;;;;;;;2.28;1.48;;;;;;;;;;5091936;28;20201;-75
2021/04/06 01:12:03;;;;;;;6.32;1.88;;;;;;;;;;5085054;28;20167;-75
2021/04/06 01:14:31;;;;;;;4.78;1.98;;;;;;;;;;5100733;28;20177;-76
2021/04/06 01:16:57;;;;;;;4.97;1.80;;;;;;;;;;5112403;28;20271;-76
2021/04/06 01:19:24;;;;;;;3.67;1.90;;;;;;;;;;5094542;28;20187;-76
2021/04/06 01:21:50;;;;;;;6.03;1.75;;;;;;;;;;5092981;28;20179;-76
2021/04/06 01:24:16;;;;;;;3.00;1.58;;;;;;;;;;5092915;28;20283;-76
2021/04/06 01:26:42;;;;;;;4.80;2.15;;;;;;;;;;5095187;28;20218;-76
2021/04/06 01:29:08;;;;;;;3.70;1.70;;;;;;;;;;5108529;28;20238;-76
2021/04/06 01:31:34;;;;;;;6.78;1.90;;;;;;;;;;5091999;28;20211;-76
2021/04/06 01:34:03;;;;;;;2.63;1.67;;;;;;;;;;5091977;28;20209;-76
2021/04/06 01:36:29;;;;;;;2.53;1.40;;;;;;;;;;5092016;28;20200;-76
2021/04/06 01:38:57;;;;;;;4.13;1.70;;;;;;;;;;5097289;28;20184;-77
2021/04/06 01:41:23;;;;;;;3.97;1.98;;;;;;;;;;5092733;28;20195;-76
2021/04/06 01:43:50;;;;;;;3.40;1.55;;;;;;;;;;5092658;28;20262;-76
2021/04/06 01:46:20;;;;;;;3.15;1.88;;;;;;;;;;5102635;28;20222;-76
2021/04/06 01:48:48;;;;;;;5.75;2.03;;;;;;;;;;5111554;28;20177;-77
2021/04/06 01:51:15;;;;;;;5.18;1.98;;;;;;;;;;5086798;28;20234;-75
2021/04/06 01:53:42;;;;;;;4.75;1.90;;;;;;;;;;5096844;28;20521;-77
2021/04/06 01:56:14;;;;;;;2.78;1.65;;;;;;;;;;5107856;28;20194;-75
2021/04/06 01:58:45;;;;;;;3.15;1.73;;;;;;;;;;5098662;28;20198;-76
2021/04/06 02:03:41;;;;;;;5.72;2.15;;;;;;;;;;5096279;28;20274;-76
2021/04/06 02:06:09;;;;;;;3.10;2.05;;;;;;;;;;5110144;28;20210;-77
2021/04/06 02:08:35;;;;;;;2.70;1.80;;;;;;;;;;5100471;28;20175;-76
2021/04/06 02:11:01;;;;;;;3.47;1.60;;;;;;;;;;5096231;28;20199;-75
2021/04/06 02:13:27;;;;;;;2.42;1.70;;;;;;;;;;5096459;28;20167;-76
2021/04/06 02:15:57;;;;;;;3.97;1.98;;;;;;;;;;5109979;28;20243;-76
2021/04/06 02:18:27;;;;;;;3.85;1.92;;;;;;;;;;5101130;28;20569;-76
2021/04/06 02:20:54;;;;;;;3.30;2.20;;;;;;;;;;5096637;28;20180;-76
2021/04/06 02:23:20;;;;;;;2.50;2.10;;;;;;;;;;5097157;28;20183;-76
2021/04/06 02:25:50;;;;;;;3.40;2.20;;;;;;;;;;5108024;28;20209;-77
2021/04/06 02:28:17;;;;;;;3.78;2.10;;;;;;;;;;5096900;28;20179;-76
2021/04/06 02:30:56;;;;;;;4.10;2.40;;;;;;;;;;5104921;28;20210;-76
2021/04/06 02:33:23;;;;;;;4.05;2.35;;;;;;;;;;5101165;28;20179;-76
2021/04/06 02:36:05;;;;;;;4.88;1.85;;;;;;;;;;5096685;28;20268;-76
2021/04/06 02:38:35;;;;;;;4.57;2.75;;;;;;;;;;5096493;28;20172;-76
2021/04/06 02:41:14;;;;;;;5.38;1.80;;;;;;;;;;5099494;28;20176;-76
2021/04/06 02:43:43;;;;;;;3.38;2.15;;;;;;;;;;5100098;28;20543;-76
2021/04/06 02:46:09;;;;;;;3.58;2.40;;;;;;;;;;5117177;28;20198;-74
2021/04/06 02:48:36;;;;;;;3.60;2.75;;;;;;;;;;5106837;28;20179;-75
2021/04/06 02:51:02;;;;;;;7.00;2.60;;;;;;;;;;5100181;28;20195;-74
2021/04/06 02:53:28;;;;;;;5.57;3.00;;;;;;;;;;5108409;28;20176;-76
2021/04/06 02:55:54;;;;;;;5.85;2.85;;;;;;;;;;5112172;28;20226;-76
2021/04/06 02:58:20;;;;;;;4.47;2.20;;;;;;;;;;5110203;27;20186;-76
2021/04/06 03:00:46;;;;;;;5.23;3.03;;;;;;;;;;5103676;28;20179;-76
2021/04/06 03:03:22;;;;;;;6.60;3.58;;;;;;;;;;5095450;28;20432;-77
2021/04/06 03:05:48;;;;;;;5.10;4.18;;;;;;;;;;5095998;28;20695;-76
2021/04/06 03:08:14;;;;;;;6.65;3.83;;;;;;;;;;5095837;28;20616;-76
2021/04/06 03:10:41;;;;;;;8.77;3.97;;;;;;;;;;5103115;28;20309;-76
2021/04/06 03:13:08;;;;;;;9.30;3.83;;;;;;;;;;5095579;28;20251;-76
2021/04/06 03:15:37;;;;;;;9.43;3.92;;;;;;;;;;5110057;28;20195;-76
2021/04/06 03:18:04;;;;;;;7.85;4.25;;;;;;;;;;5095937;28;20175;-76
2021/04/06 03:20:30;;;;;;;9.25;4.80;;;;;;;;;;5110465;28;20183;-76
2021/04/06 03:22:57;;;;;;;11.18;5.93;;;;;;;;;;5104735;28;20183;-75
2021/04/06 03:25:23;;;;;;;6.18;5.40;;;;;;;;;;5100952;28;20222;-75
2021/04/06 03:27:50;;;;;;;10.60;5.43;;;;;;;;;;5105296;28;20544;-75
2021/04/06 03:30:31;;;;;;;7.30;4.20;;;;;;;;;;5101616;28;20219;-75
2021/04/06 03:32:59;;;;;;;7.60;4.00;;;;;;;;;;5095330;28;20206;-74
2021/04/06 03:35:25;;;;;;;10.95;4.10;;;;;;;;;;5099387;28;20656;-76
2021/04/06 03:37:51;;;;;;;11.07;4.05;;;;;;;;;;5095148;28;20191;-76
2021/04/06 03:40:18;;;;;;;8.38;3.40;;;;;;;;;;5095151;28;20509;-77
2021/04/06 03:42:44;;;;;;;8.18;3.20;;;;;;;;;;5095190;28;20180;-76
2021/04/06 03:45:10;;;;;;;9.75;3.35;;;;;;;;;;5113656;28;20202;-75
2021/04/06 03:47:55;;;;;;;5.32;3.00;;;;;;;;;;5115777;28;20202;-77
2021/04/06 03:50:38;;;;;;;3.42;2.90;;;;;;;;;;5107728;28;20202;-76
2021/04/06 03:53:05;;;;;;;3.75;2.72;;;;;;;;;;5110046;28;20171;-77
2021/04/06 03:55:32;;;;;;;7.75;3.20;;;;;;;;;;5094630;28;20260;-77
2021/04/06 03:58:07;;;;;;;6.10;3.00;;;;;;;;;;5094867;28;20190;-76
2021/04/06 04:00:33;;;;;;;12.20;3.25;;;;;;;;;;5094997;28;20179;-76
2021/04/06 04:03:02;;;;;;;8.27;2.70;;;;;;;;;;5094311;28;20182;-75
2021/04/06 04:05:28;;;;;;;5.88;3.10;;;;;;;;;;5106581;28;20210;-76
2021/04/06 04:07:55;;;;;;;5.85;3.00;;;;;;;;;;5101540;28;20254;-76
2021/04/06 04:10:21;;;;;;;11.18;3.50;;;;;;;;;;5094571;28;20199;-76
2021/04/06 04:12:47;;;;;;;8.50;3.40;;;;;;;;;;5103073;28;20568;-76
2021/04/06 04:15:13;;;;;;;9.73;4.70;;;;;;;;;;5099878;28;20190;-76
2021/04/06 04:17:39;;;;;;;8.55;4.60;;;;;;;;;;5102418;28;20266;-77
2021/04/06 04:20:12;;;;;;;9.95;7.13;;;;;;;;;;5094459;28;20228;-74
2021/04/06 04:22:38;;;;;;;18.58;7.90;;;;;;;;;;5094589;28;20285;-76
2021/04/06 04:25:05;;;;;;;11.98;6.70;;;;;;;;;;5093669;28;20236;-74
2021/04/06 04:27:31;;;;;;;8.95;5.53;;;;;;;;;;5093978;28;20239;-76
2021/04/06 04:29:57;;;;;;;9.15;5.30;;;;;;;;;;5099967;28;20186;-76
2021/04/06 04:32:23;;;;;;;9.67;4.67;;;;;;;;;;5114928;28;20167;-76
2021/04/06 04:34:49;;;;;;;10.93;4.35;;;;;;;;;;5102658;27;20886;-75
2021/04/06 04:37:15;;;;;;;9.02;3.38;;;;;;;;;;5094314;28;20255;-76
2021/04/06 04:39:41;;;;;;;9.70;3.33;;;;;;;;;;5100309;28;20532;-75
2021/04/06 04:42:07;;;;;;;14.95;4.40;;;;;;;;;;5100247;28;20513;-75
2021/04/06 04:44:33;;;;;;;14.20;3.42;;;;;;;;;;5100143;28;20227;-76
2021/04/06 04:46:59;;;;;;;7.88;2.85;;;;;;;;;;5100714;28;20191;-76
2021/04/06 04:49:26;;;;;;;9.75;3.60;;;;;;;;;;5114248;28;20174;-76
2021/04/06 04:51:52;;;;;;;8.70;3.40;;;;;;;;;;5098814;28;20552;-77
2021/04/06 04:54:18;;;;;;;13.43;3.38;;;;;;;;;;5093324;28;20207;-76
2021/04/06 04:56:44;;;;;;;6.38;2.75;;;;;;;;;;5094069;28;20195;-76
2021/04/06 04:59:10;;;;;;;9.55;2.70;;;;;;;;;;5107333;28;20194;-76
2021/04/06 05:01:37;;;;;;;8.70;3.83;;;;;;;;;;5106127;28;20182;-77
2021/04/06 05:04:03;;;;;;;12.70;4.15;;;;;;;;;;5110522;28;20186;-77
2021/04/06 05:06:29;;;;;;;12.43;4.45;;;;;;;;;;5107195;28;20551;-76
2021/04/06 05:08:55;;;;;;;10.85;3.72;;;;;;;;;;5098489;28;20174;-76
2021/04/06 05:11:21;;;;;;;13.10;3.88;;;;;;;;;;5100226;28;20194;-76
2021/04/06 05:13:47;;;;;;;8.45;3.50;;;;;;;;;;5094763;28;20180;-76
2021/04/06 05:16:14;;;;;;;12.43;4.32;;;;;;;;;;5093950;28;20191;-74
2021/04/06 05:18:40;;;;;;;10.27;3.13;;;;;;;;;;5109370;28;20168;-74
2021/04/06 05:21:06;;;;;;;11.73;4.05;;;;;;;;;;5107777;28;20187;-76
2021/04/06 05:23:32;;;;;;;17.85;3.22;;;;;;;;;;5108643;28;20179;-75
2021/04/06 05:25:58;;;;;;;9.13;3.33;;;;;;;;;;5109565;28;20572;-76
2021/04/06 05:28:24;;;;;;;9.77;3.40;;;;;;;;;;5113714;28;20206;-75
2021/04/06 05:30:50;;;;;;;12.25;3.65;;;;;;;;;;5108282;28;20678;-76
2021/04/06 05:33:16;;;;;;;11.65;3.85;;;;;;;;;;5093207;28;20168;-75
2021/04/06 05:35:42;;;;;;;11.27;3.53;;;;;;;;;;5107174;28;20190;-75
2021/04/06 05:38:08;;;;;;;8.32;3.40;;;;;;;;;;5111573;28;20473;-74
2021/04/06 05:40:34;;;;;;;9.43;3.53;;;;;;;;;;5093091;28;20190;-74
2021/04/06 05:43:02;;;;;;;8.43;3.05;;;;;;;;;;5092157;28;20283;-75
2021/04/06 05:45:28;;;;;;;11.75;3.22;;;;;;;;;;5107777;28;20285;-75
2021/04/06 05:47:55;;;;;;;8.82;2.83;;;;;;;;;;5104516;28;20178;-76
2021/04/06 05:50:21;;;;;;;9.48;2.90;;;;;;;;;;5093123;28;20736;-77
2021/04/06 05:52:48;;;;;;;12.52;3.05;;;;;;;;;;5095623;28;20175;-76
2021/04/06 05:55:14;;;;;;;6.57;2.72;;;;;;;;;;5093218;28;20194;-76
2021/04/06 05:57:40;;;;;;;8.50;2.85;;;;;;;;;;5093402;28;20246;-76
2021/04/06 06:00:07;;;;;;;12.95;5.65;;;;;;;;;;5093344;28;20267;-74
2021/04/06 06:02:33;;;;;;;7.47;3.05;;;;;;;;;;5092926;28;20211;-76
2021/04/06 06:04:59;;;;;;;13.20;4.43;;;;;;;;;;5092861;28;20202;-74
2021/04/06 06:07:26;;;;;;;8.93;2.58;;;;;;;;;;5093022;28;20168;-75
2021/04/06 06:09:52;;;;;;;10.27;2.47;;;;;;;;;;5089855;28;20179;-76
2021/04/06 06:12:19;;;;;;;8.00;2.50;;;;;;;;;;5112154;28;20266;-76
2021/04/06 06:14:50;;;;;;;5.95;2.17;;;;;;;;;;5100251;28;20188;-76
2021/04/06 06:17:19;;;;;;;6.82;3.10;;;;;;;;;;5113406;28;20163;-75
2021/04/06 06:19:47;;;;;;;7.30;2.90;;;;;;;;;;5113200;28;20232;-74
2021/04/06 06:22:16;;;;;;;10.68;2.80;;;;;;;;;;5096857;28;20168;-76
2021/04/06 06:24:45;;;;;;;10.27;3.00;;;;;;;;;;5092226;28;20175;-74
2021/04/06 06:27:24;;;;;;;6.90;2.85;;;;;;;;;;5092934;28;20191;-76
2021/04/06 06:29:50;;;;;;;9.23;2.95;;;;;;;;;;5092087;28;20171;-76
2021/04/06 06:32:20;;;;;;;12.38;3.47;;;;;;;;;;5105231;28;20174;-76
2021/04/06 06:34:46;;;;;;;4.68;2.75;;;;;;;;;;5089554;28;20189;-75
2021/04/06 06:37:12;;;;;;;11.25;3.38;;;;;;;;;;5085153;28;20200;-75
2021/04/06 06:39:40;;;;;;;16.38;3.72;;;;;;;;;;5088377;28;20175;-75
2021/04/06 06:42:11;;;;;;;10.88;3.05;;;;;;;;;;5081443;28;20183;-75
2021/04/06 06:44:38;;;;;;;9.77;4.05;;;;;;;;;;5080281;28;20180;-76
2021/04/06 06:47:05;;;;;;;10.48;3.58;;;;;;;;;;5088281;28;20192;-74
2021/04/06 06:49:40;;;;;;;11.23;3.75;;;;;;;;;;5095027;28;20287;-75
2021/04/06 06:52:09;;;;;;;10.27;3.55;;;;;;;;;;5095444;28;20683;-73
2021/04/06 06:54:39;;;;;;;8.55;3.05;;;;;;;;;;5092111;28;20175;-74
2021/04/06 06:57:12;;;;;;;9.82;3.15;;;;;;;;;;5091922;28;20621;-76
2021/04/06 06:59:48;;;;;;;12.82;2.90;;;;;;;;;;5092302;28;20179;-75
2021/04/06 07:02:21;;;;;;;8.07;3.35;;;;;;;;;;5092140;28;20182;-75
2021/04/06 07:04:47;;;;;;;9.15;3.35;;;;;;;;;;5091268;28;20214;-76
2021/04/06 07:07:13;;;;;;;9.25;4.07;;;;;;;;;;5091547;28;20199;-75
2021/04/06 07:09:40;;;;;;;7.10;3.00;;;;;;;;;;5092168;28;20203;-76
2021/04/06 07:12:06;;;;;;;7.35;3.50;;;;;;;;;;5098106;28;20198;-76
2021/04/06 07:14:33;;;;;;;10.38;3.20;;;;;;;;;;5099628;28;20187;-75
2021/04/06 07:17:00;;;;;;;7.60;2.78;;;;;;;;;;5091301;28;20244;-75
2021/04/06 07:19:27;;;;;;;7.13;2.92;;;;;;;;;;5106867;28;20178;-75
2021/04/06 07:21:53;;;;;;;8.88;2.75;;;;;;;;;;5104761;28;20183;-76
2021/04/06 07:24:21;;;;;;;11.65;3.58;;;;;;;;;;5106638;28;20183;-76
2021/04/06 07:26:47;;;;;;;14.20;3.20;;;;;;;;;;5103421;28;20633;-77
2021/04/06 07:29:14;;;;;;;9.73;2.80;;;;;;;;;;5104845;28;20231;-78
2021/04/06 07:31:40;;;;;;;12.50;3.53;;;;;;;;;;5092198;28;20207;-77
2021/04/06 07:34:08;;;;;;;7.10;3.05;;;;;;;;;;5091456;28;20297;-75
2021/04/06 07:36:34;;;;;;;10.52;3.25;;;;;;;;;;5089650;28;20191;-76
2021/04/06 07:39:01;;;;;;;12.52;3.50;;;;;;;;;;5091496;28;20254;-76
2021/04/06 07:41:29;;;;;;;5.55;2.38;;;;;;;;;;5091626;28;20187;-75
2021/04/06 07:43:56;;;;;;;15.77;3.58;;;;;;;;;;5091201;28;20191;-76
2021/04/06 07:46:42;;;;;;;8.18;2.75;;;;;;;;;;5091617;28;20195;-74
2021/04/06 07:49:19;;;;;;;4.68;2.10;;;;;;;;;;5090706;28;20172;-74
2021/04/06 07:51:45;;;;;;;11.07;2.50;;;;;;;;;;5091447;28;20252;-74
2021/04/06 07:54:11;;;;;;;6.43;2.25;;;;;;;;;;5091469;28;20184;-75
2021/04/06 07:56:52;;;;;;;6.13;2.40;;;;;;;;;;5106138;28;20199;-74
2021/04/06 07:59:18;;;;;;;5.43;2.30;;;;;;;;;;5095176;28;20718;-74
2021/04/06 08:01:44;;;;;;;7.60;2.07;;;;;;;;;;5093720;28;20194;-75
2021/04/06 08:04:10;;;;;;;7.57;1.80;;;;;;;;;;5099789;28;21080;-74
2021/04/06 08:06:40;;;;;;;4.88;2.20;;;;;;;;;;5095006;28;20306;-74
2021/04/06 08:09:25;;;;;;;4.10;2.00;;;;;;;;;;5097747;28;20595;-73
2021/04/06 08:12:07;;;;;;;6.13;2.05;;;;;;;;;;5091705;28;20248;-76
2021/04/06 08:14:41;;;;;;;9.40;2.30;;;;;;;;;;5090706;28;20175;-77
2021/04/06 08:17:25;;;;;;;7.78;2.40;;;;;;;;;;5092927;28;20329;-76
2021/04/06 08:19:53;;;;;;;7.65;3.00;;;;;;;;;;5094146;28;20179;-76
2021/04/06 08:22:29;;;;;;;8.02;2.97;;;;;;;;;;5111756;28;20174;-78
2021/04/06 08:25:14;;;;;;;7.68;2.95;;;;;;;;;;5098146;28;20186;-76
2021/04/06 08:27:40;;;;;;;9.73;2.90;;;;;;;;;;5085875;28;20179;-75
2021/04/06 08:30:18;;;;;;;12.73;3.30;;;;;;;;;;5090634;28;20586;-76
2021/04/06 08:33:00;;;;;;;7.18;2.63;;;;;;;;;;5090261;28;20416;-76
2021/04/06 08:35:52;;;;;;;5.82;2.10;;;;;;;;;;5100924;28;20205;-76
2021/04/06 08:38:21;;;;;;;5.15;2.13;;;;;;;;;;5079367;28;20176;-77
2021/04/06 08:40:57;;;;;;;6.93;2.00;;;;;;;;;;5106490;28;20182;-77
2021/04/06 08:43:29;;;;;;;7.28;1.77;;;;;;;;;;5099227;28;20183;-76
2021/04/06 08:46:03;;;;;;;6.10;2.22;;;;;;;;;;5090280;28;20203;-75
2021/04/06 08:48:44;;;;;;;4.40;2.17;;;;;;;;;;5090271;28;20183;-75
2021/04/06 08:51:18;;;;;;;5.80;2.55;;;;;;;;;;5085967;28;20593;-74
2021/04/06 08:53:44;;;;;;;4.68;1.90;;;;;;;;;;5088997;28;20644;-76
2021/04/06 08:56:14;;;;;;;5.22;1.77;;;;;;;;;;5090027;28;20195;-75
2021/04/06 08:58:40;;;;;;;3.13;2.22;;;;;;;;;;5089689;28;20183;-76
2021/04/06 09:01:06;;;;;;;6.85;1.83;;;;;;;;;;5089444;28;20176;-73
2021/04/06 09:03:33;;;;;;;4.20;2.10;;;;;;;;;;5106440;28;20294;-75
2021/04/06 09:06:25;;;;;;;8.75;4.38;;;;;;;;;;5093461;28;20203;-77
2021/04/06 09:08:55;;;;;;;9.25;5.15;;;;;;;;;;5088613;28;20215;-76
2021/04/06 09:11:25;;;;;;;10.48;4.70;;;;;;;;;;5089942;28;20308;-77
2021/04/06 09:13:53;;;;;;;8.25;3.70;;;;;;;;;;5102850;27;20191;-75
2021/04/06 09:16:23;;;;;;;6.03;2.88;;;;;;;;;;5094476;28;20242;-74
2021/04/06 09:18:53;;;;;;;5.32;2.53;;;;;;;;;;5088770;28;20262;-76
2021/04/06 09:21:21;;;;;;;7.35;2.55;;;;;;;;;;5103199;28;20665;-75
2021/04/06 09:23:50;;;;;;;4.85;1.65;;;;;;;;;;5101887;28;20662;-76
2021/04/06 09:26:16;;;;;;;5.10;4.15;;;;;;;;;;5091044;28;20203;-76
2021/04/06 09:28:42;;;;;;;6.40;1.83;;;;;;;;;;5094531;28;20216;-75
2021/04/06 09:31:09;;;;;;;11.68;7.35;;;;;;;;;;5091623;28;20199;-74
2021/04/06 09:33:36;;;;;;;4.03;2.08;;;;;;;;;;5101435;28;20171;-76
2021/04/06 09:36:02;;;;;;;8.13;2.20;;;;;;;;;;5098657;28;20698;-77
2021/04/06 09:38:29;;;;;;;4.47;2.05;;;;;;;;;;5105372;28;20650;-76
2021/04/06 09:40:55;;;;;;;4.80;3.00;;;;;;;;;;5106473;28;20726;-75
2021/04/06 09:43:21;;;;;;;4.22;2.20;;;;;;;;;;5090390;28;20233;-75
2021/04/06 09:45:49;;;;;;;9.85;2.75;;;;;;;;;;5101207;28;20285;-76
2021/04/06 09:48:15;;;;;;;8.57;3.05;;;;;;;;;;5100376;28;20179;-77
2021/04/06 09:50:55;;;;;;;6.10;2.97;;;;;;;;;;5099397;28;20579;-76
2021/04/06 09:53:21;;;;;;;10.13;3.17;;;;;;;;;;5099103;28;20188;-76
2021/04/06 09:55:47;;;;;;;5.60;2.40;;;;;;;;;;5089282;28;20230;-76
2021/04/06 09:58:14;;;;;;;5.35;2.60;;;;;;;;;;5099990;28;20644;-75
2021/04/06 10:00:40;;;;;;;7.20;2.33;;;;;;;;;;5100943;28;20222;-74
2021/04/06 10:03:10;;;;;;;4.13;2.33;;;;;;;;;;5097101;28;20183;-75
2021/04/06 10:05:38;;;;;;;5.88;2.35;;;;;;;;;;5094133;28;20222;-76
2021/04/06 10:08:04;;;;;;;4.68;2.22;;;;;;;;;;5092273;28;20187;-75
2021/04/06 10:10:31;;;;;;;6.30;2.60;;;;;;;;;;5089569;28;20237;-77
2021/04/06 10:12:59;;;;;;;9.85;2.30;;;;;;;;;;5099582;28;20228;-74
2021/04/06 10:15:28;;;;;;;9.45;2.42;;;;;;;;;;5093316;28;20199;-74
2021/04/06 10:17:55;;;;;;;4.82;2.40;;;;;;;;;;5093838;28;20540;-74
2021/04/06 10:20:25;;;;;;;6.20;2.13;;;;;;;;;;5096485;28;20179;-76
2021/04/06 10:22:53;;;;;;;6.53;2.17;;;;;;;;;;5099293;27;20236;-76
2021/04/06 10:25:23;;;;;;;3.60;1.70;;;;;;;;;;5094163;28;20702;-75
2021/04/06 10:27:54;;;;;;;4.07;2.58;;;;;;;;;;5100888;28;20186;-76
2021/04/06 10:30:28;;;;;;;6.50;2.03;;;;;;;;;;5101052;28;20251;-73
2021/04/06 10:33:03;;;;;;;4.00;2.30;;;;;;;;;;5110946;28;20179;-73
2021/04/06 10:35:30;;;;;;;5.80;2.10;;;;;;;;;;5113260;28;20206;-76
2021/04/06 10:37:58;;;;;;;6.53;3.08;;;;;;;;;;5106918;27;20194;-76
2021/04/06 10:40:33;;;;;;;7.85;2.55;;;;;;;;;;5102506;28;20175;-74
2021/04/06 10:43:07;;;;;;;5.03;2.38;;;;;;;;;;5079557;28;20182;-75
2021/04/06 10:45:36;;;;;;;7.10;2.50;;;;;;;;;;5106068;28;20201;-75
2021/04/06 10:48:07;;;;;;;4.00;2.45;;;;;;;;;;5098923;28;20258;-76
2021/04/06 10:50:35;;;;;;;6.15;2.53;;;;;;;;;;5089425;28;20195;-74
2021/04/06 10:53:01;;;;;;;3.85;2.08;;;;;;;;;;5092491;28;20214;-74
2021/04/06 10:55:37;;;;;;;6.57;2.88;;;;;;;;;;5101769;28;20282;-76
2021/04/06 10:58:04;;;;;;;5.05;1.88;;;;;;;;;;5097134;28;20179;-75
2021/04/06 11:00:30;;;;;;;4.18;2.25;;;;;;;;;;5109760;28;20182;-75
2021/04/06 11:03:14;;;;;;;2.63;1.67;;;;;;;;;;5100906;28;20193;-74
2021/04/06 11:05:40;;;;;;;4.55;1.70;;;;;;;;;;5079507;28;20223;-76
2021/04/06 11:08:16;;;;;;;4.70;1.35;;;;;;;;;;5087573;28;20583;-75
2021/04/06 11:10:42;;;;;;;3.22;1.50;;;;;;;;;;5091883;28;20207;-74
2021/04/06 11:13:08;;;;;;;4.32;1.40;;;;;;;;;;5105474;28;20262;-73
2021/04/06 11:15:34;;;;;;;2.95;1.60;;;;;;;;;;5091395;28;20204;-76
2021/04/06 11:18:00;;;;;;;7.00;2.10;;;;;;;;;;5105027;28;20607;-73
2021/04/06 11:20:27;;;;;;;4.68;2.55;;;;;;;;;;5095441;28;20225;-74
2021/04/06 11:22:53;;;;;;;2.45;1.50;;;;;;;;;;5094884;28;20540;-72
2021/04/06 11:25:20;;;;;;;4.70;1.50;;;;;;;;;;5101519;28;20198;-74
2021/04/06 11:27:46;;;;;;;3.72;1.50;;;;;;;;;;5112042;28;20440;-73
2021/04/06 11:30:12;;;;;;;3.40;1.40;;;;;;;;;;5090537;28;20187;-74
2021/04/06 11:32:38;;;;;;;4.93;1.50;;;;;;;;;;5091511;28;20597;-76
2021/04/06 11:35:04;;;;;;;2.53;1.50;;;;;;;;;;5090755;28;20171;-75
2021/04/06 11:37:30;;;;;;;5.20;1.90;;;;;;;;;;5108705;28;20261;-76
2021/04/06 11:39:58;;;;;;;4.57;1.93;;;;;;;;;;5100912;28;20263;-75
2021/04/06 11:42:24;;;;;;;2.65;1.75;;;;;;;;;;5091533;28;21061;-76
2021/04/06 11:44:50;;;;;;;2.42;1.40;;;;;;;;;;5090412;28;20694;-76
2021/04/06 11:47:16;;;;;;;3.85;1.75;;;;;;;;;;5090858;28;20229;-76
2021/04/06 11:49:43;;;;;;;4.00;1.70;;;;;;;;;;5091258;28;20180;-75
2021/04/06 11:52:09;;;;;;;5.28;1.80;;;;;;;;;;5090932;28;20489;-76
2021/04/06 11:54:35;;;;;;;4.57;1.70;;;;;;;;;;5091263;28;20207;-78
2021/04/06 11:57:01;;;;;;;3.50;1.70;;;;;;;;;;5090745;28;20437;-75
2021/04/06 11:59:29;;;;;;;4.00;1.90;;;;;;;;;;5092806;28;20180;-75
2021/04/06 12:01:55;;;;;;;3.30;1.73;;;;;;;;;;5090827;28;20720;-79
2021/04/06 12:04:21;;;;;;;6.85;1.95;;;;;;;;;;5093789;28;20230;-75
2021/04/06 12:06:47;;;;;;;6.60;2.25;;;;;;;;;;5090961;28;20272;-80
2021/04/06 12:09:14;;;;;;;6.43;2.00;;;;;;;;;;5090605;28;20616;-79
2021/04/06 12:11:40;;;;;;;4.75;2.13;;;;;;;;;;5091495;28;20829;-75
2021/04/06 12:14:07;;;;;;;5.65;2.00;;;;;;;;;;5091005;28;20256;-76
2021/04/06 12:16:33;;;;;;;3.88;1.95;;;;;;;;;;5094105;28;20196;-76
2021/04/06 12:18:59;;;;;;;4.55;2.17;;;;;;;;;;5090783;28;20210;-78
2021/04/06 12:21:25;;;;;;;3.57;2.07;;;;;;;;;;5094842;28;20191;-79
2021/04/06 12:23:51;;;;;;;5.50;1.80;;;;;;;;;;5090547;28;20825;-76
2021/04/06 12:26:17;;;;;;;3.30;1.73;;;;;;;;;;5090138;28;20209;-78
2021/04/06 12:28:43;;;;;;;4.32;1.65;;;;;;;;;;5090867;28;20179;-76
2021/04/06 12:31:09;;;;;;;5.03;1.83;;;;;;;;;;5094198;28;20205;-78
2021/04/06 12:33:35;;;;;;;6.40;2.00;;;;;;;;;;5095801;28;20409;-74
2021/04/06 12:36:02;;;;;;;3.22;1.92;;;;;;;;;;5089946;28;20664;-74
2021/04/06 12:38:28;;;;;;;4.63;2.08;;;;;;;;;;5090449;28;20180;-76
2021/04/06 12:40:54;;;;;;;6.10;2.70;;;;;;;;;;5090682;28;20266;-78
2021/04/06 12:43:20;;;;;;;3.58;1.58;;;;;;;;;;5088639;28;20180;-77
2021/04/06 12:45:46;;;;;;;4.90;1.83;;;;;;;;;;5089889;28;20942;-77
2021/04/06 12:48:12;;;;;;;4.68;1.92;;;;;;;;;;5104390;28;20482;-77
2021/04/06 12:50:38;;;;;;;6.00;2.80;;;;;;;;;;5101467;28;20199;-79
2021/04/06 12:53:04;;;;;;;6.23;2.00;;;;;;;;;;5103515;28;20432;-79
2021/04/06 12:55:30;;;;;;;3.70;1.60;;;;;;;;;;5089904;28;20420;-79
2021/04/06 12:57:57;;;;;;;10.48;2.00;;;;;;;;;;5089950;28;20459;-78
2021/04/06 13:00:24;;;;;;;3.67;1.35;;;;;;;;;;5098899;28;20182;-78
2021/04/06 13:02:50;;;;;;;3.97;2.38;;;;;;;;;;5110049;28;20186;-77
2021/04/06 13:05:16;;;;;;;3.13;1.42;;;;;;;;;;5090350;28;20211;-77
2021/04/06 13:07:43;;;;;;;5.72;1.55;;;;;;;;;;5090531;28;20179;-78
2021/04/06 13:10:10;;;;;;;4.40;1.40;;;;;;;;;;5098354;28;20175;-78
2021/04/06 13:12:36;;;;;;;4.82;1.63;;;;;;;;;;5106395;28;20659;-79
2021/04/06 13:15:02;;;;;;;2.85;1.55;;;;;;;;;;5091452;28;20256;-76
2021/04/06 13:17:28;;;;;;;5.70;1.58;;;;;;;;;;5089744;28;20184;-77
2021/04/06 13:19:54;;;;;;;3.33;1.40;;;;;;;;;;5089307;28;20284;-78
2021/04/06 13:22:20;;;;;;;3.50;1.53;;;;;;;;;;5089321;28;20446;-77
2021/04/06 13:24:46;;;;;;;3.20;1.93;;;;;;;;;;5089115;28;20458;-75
2021/04/06 13:27:12;;;;;;;2.08;1.15;;;;;;;;;;5093327;28;20437;-75
2021/04/06 13:29:38;;;;;;;3.30;1.23;;;;;;;;;;5095807;28;20195;-75
2021/04/06 13:32:04;;;;;;;2.63;1.50;;;;;;;;;;5089086;28;20203;-76
2021/04/06 13:34:30;;;;;;;7.10;2.55;;;;;;;;;;5098806;28;20180;-76
2021/04/06 13:36:57;;;;;;;2.80;1.40;;;;;;;;;;5102183;28;20192;-76
2021/04/06 13:39:24;;;;;;;5.13;2.13;;;;;;;;;;5089911;28;20172;-76
2021/04/06 13:41:50;;;;;;;6.07;1.90;;;;;;;;;;5098019;28;20621;-76
2021/04/06 13:44:16;;;;;;;5.77;1.60;;;;;;;;;;5100878;28;20182;-75
2021/04/06 13:46:42;;;;;;;3.83;2.10;;;;;;;;;;5108796;28;20433;-77
2021/04/06 13:49:08;;;;;;;7.10;2.10;;;;;;;;;;5093184;28;20429;-76
2021/04/06 13:51:35;;;;;;;4.72;1.75;;;;;;;;;;5097623;28;20554;-77
2021/04/06 13:54:02;;;;;;;6.35;1.77;;;;;;;;;;5107945;28;20185;-77
2021/04/06 13:56:28;;;;;;;3.38;2.40;;;;;;;;;;5088926;28;20223;-77
2021/04/06 13:58:54;;;;;;;3.67;1.83;;;;;;;;;;5102925;28;20179;-76
2021/04/06 14:01:20;;;;;;;5.13;1.33;;;;;;;;;;5089002;28;20756;-77
2021/04/06 14:03:46;;;;;;;6.63;1.50;;;;;;;;;;5088605;28;20428;-77
2021/04/06 14:06:12;;;;;;;3.67;1.63;;;;;;;;;;5092319;28;20205;-75
2021/04/06 14:08:38;;;;;;;3.95;1.40;;;;;;;;;;5094493;28;20396;-77
2021/04/06 14:11:04;;;;;;;2.83;1.23;;;;;;;;;;5088866;28;20307;-76
2021/04/06 14:13:30;;;;;;;7.00;1.23;;;;;;;;;;5095791;28;20421;-76
2021/04/06 14:15:56;;;;;;;3.55;1.40;;;;;;;;;;5100551;28;20194;-77
2021/04/06 14:18:23;;;;;;;4.72;2.00;;;;;;;;;;5108188;28;20203;-76
2021/04/06 14:20:49;;;;;;;6.00;1.90;;;;;;;;;;5100425;28;20186;-75
2021/04/06 14:23:28;;;;;;;2.80;1.60;;;;;;;;;;5108933;28;20254;-76
2021/04/06 14:25:55;;;;;;;3.83;1.80;;;;;;;;;;5102384;28;20293;-76
2021/04/06 14:28:21;;;;;;;8.32;5.47;;;;;;;;;;5102766;28;20188;-76
2021/04/06 14:30:49;;;;;;;4.20;1.77;;;;;;;;;;5102677;28;20213;-76
2021/04/06 14:33:18;;;;;;;4.50;2.30;;;;;;;;;;5107922;28;20171;-75
2021/04/06 14:35:44;;;;;;;3.42;1.42;;;;;;;;;;5103400;28;20198;-77
2021/04/06 14:38:11;;;;;;;4.97;2.15;;;;;;;;;;5089094;28;20256;-77
2021/04/06 14:40:37;;;;;;;2.92;1.60;;;;;;;;;;5088867;28;20294;-76
2021/04/06 14:43:08;;;;;;;3.50;1.50;;;;;;;;;;5096561;28;20183;-75
2021/04/06 14:45:34;;;;;;;5.03;1.50;;;;;;;;;;5104065;28;20695;-77
2021/04/06 14:48:00;;;;;;;2.72;1.42;;;;;;;;;;5100928;28;20645;-77